createdAt,value
2019-03-21T00:01:44.466Z,152392.09
2019-03-21T00:04:14.699Z,152392.09
2019-03-21T00:06:43.199Z,152386.87
2019-03-21T00:09:14.407Z,152376.38
2019-03-21T00:12:00.409Z,152382.91
2019-03-21T00:14:32.303Z,152377.69
2019-03-21T00:17:01.305Z,152381.59
2019-03-21T00:19:29.803Z,152388.19
2019-03-21T00:21:58.268Z,152384.22
2019-03-21T00:24:26.766Z,152384.22
2019-03-21T00:26:55.225Z,152392.09
2019-03-21T00:29:23.713Z,152394.72
2019-03-21T00:31:52.211Z,152384.22
2019-03-21T00:34:20.709Z,152363.20
2019-03-21T00:36:49.184Z,152363.20
2019-03-21T00:39:17.709Z,152363.20
2019-03-21T00:41:46.194Z,152368.48
2019-03-21T00:44:18.381Z,152381.59
2019-03-21T00:46:44.893Z,152377.69
2019-03-21T00:49:13.386Z,152367.17
2019-03-21T00:51:41.854Z,152369.78
2019-03-21T00:54:10.353Z,152378.98
2019-03-21T00:56:38.901Z,152359.28
2019-03-21T00:59:07.745Z,152355.38
2019-03-21T01:01:36.245Z,152346.17
2019-03-21T01:04:04.976Z,152355.38
2019-03-21T01:06:33.516Z,152355.38
2019-03-21T01:09:01.981Z,152364.56
2019-03-21T01:11:30.464Z,152354.06
2019-03-21T01:13:58.936Z,152355.38
2019-03-21T01:16:27.425Z,152350.09
2019-03-21T01:18:55.899Z,152344.86
2019-03-21T01:21:24.382Z,152350.09
2019-03-21T01:23:52.940Z,152350.09
2019-03-21T01:26:21.398Z,152350.09
2019-03-21T01:28:49.862Z,152334.36
2019-03-21T01:31:18.373Z,152343.56
2019-03-21T01:33:46.865Z,152318.59
2019-03-21T01:36:15.344Z,152334.36
2019-03-21T01:38:43.826Z,152329.09
2019-03-21T01:41:16.745Z,152327.78
2019-03-21T01:43:45.221Z,152313.36
2019-03-21T01:46:16.774Z,152323.86
2019-03-21T01:48:45.666Z,152326.47
2019-03-21T01:51:14.169Z,152325.16
2019-03-21T01:53:42.639Z,152315.97
2019-03-21T01:56:11.146Z,152319.89
2019-03-21T01:58:39.622Z,152315.97
2019-03-21T02:01:08.971Z,152314.66
2019-03-21T02:03:37.633Z,152306.78
2019-03-21T02:06:06.129Z,152301.50
2019-03-21T02:08:34.622Z,152317.28
2019-03-21T02:11:03.191Z,152297.58
2019-03-21T02:13:31.662Z,152308.08
2019-03-21T02:16:00.160Z,152285.78
2019-03-21T02:18:28.625Z,152302.86
2019-03-21T02:20:57.117Z,152289.69
2019-03-21T02:23:25.955Z,152300.19
2019-03-21T02:25:54.449Z,152304.16
2019-03-21T02:28:22.909Z,152302.86
2019-03-21T02:30:52.928Z,152294.97
2019-03-21T02:33:27.246Z,152302.86
2019-03-21T02:35:55.729Z,152294.97
2019-03-21T02:38:24.211Z,152292.36
2019-03-21T02:40:55.586Z,152297.58
2019-03-21T02:43:24.043Z,152298.89
2019-03-21T02:45:52.526Z,152294.97
2019-03-21T02:48:21.005Z,152292.36
2019-03-21T02:50:49.492Z,152283.16
2019-03-21T02:53:17.965Z,152302.86
2019-03-21T02:55:46.452Z,152294.97
2019-03-21T02:58:14.942Z,152288.39
2019-03-21T03:00:46.820Z,152284.47
2019-03-21T03:03:15.312Z,152281.86
2019-03-21T03:05:43.807Z,152280.50
2019-03-21T03:08:12.293Z,152273.97
2019-03-21T03:10:43.820Z,152279.19
2019-03-21T03:13:12.374Z,152277.89
2019-03-21T03:15:41.778Z,152281.86
2019-03-21T03:18:12.412Z,152270.00
2019-03-21T03:20:40.894Z,152277.89
2019-03-21T03:23:09.407Z,152275.28
2019-03-21T03:25:37.926Z,152266.08
2019-03-21T03:28:30.712Z,152279.19
2019-03-21T03:30:59.637Z,152276.58
2019-03-21T03:33:28.663Z,152284.47
2019-03-21T03:35:57.111Z,152291.00
2019-03-21T03:38:25.611Z,152268.69
2019-03-21T03:41:14.570Z,152281.86
2019-03-21T03:43:43.049Z,152266.08
2019-03-21T03:46:11.617Z,152268.69
2019-03-21T03:48:40.087Z,152281.86
2019-03-21T03:51:08.560Z,152271.36
2019-03-21T03:53:37.068Z,152264.78
2019-03-21T03:56:05.537Z,152256.89
2019-03-21T03:58:42.395Z,152260.86
2019-03-21T04:01:10.934Z,152260.86
2019-03-21T04:03:39.416Z,152245.08
2019-03-21T04:06:07.969Z,152247.69
2019-03-21T04:08:36.528Z,152252.97
2019-03-21T04:11:05.132Z,152251.66
2019-03-21T04:13:33.617Z,152267.39
2019-03-21T04:16:02.103Z,152260.86
2019-03-21T04:18:30.601Z,152277.89
2019-03-21T04:21:05.554Z,152289.69
2019-03-21T04:23:34.041Z,152242.47
2019-03-21T04:26:17.911Z,152256.89
2019-03-21T04:28:46.394Z,152273.97
2019-03-21T04:31:14.872Z,152284.47
2019-03-21T04:33:45.204Z,152273.97
2019-03-21T04:36:13.738Z,152273.97
2019-03-21T04:38:42.296Z,152288.39
2019-03-21T04:41:10.786Z,152284.47
2019-03-21T04:43:39.262Z,152279.19
2019-03-21T04:46:07.740Z,152279.19
2019-03-21T04:48:36.243Z,152268.69
2019-03-21T04:51:04.777Z,152270.00
2019-03-21T04:53:33.299Z,152266.08
2019-03-21T04:56:01.768Z,152268.69
2019-03-21T04:58:30.255Z,152275.28
2019-03-21T05:00:59.560Z,152268.69
2019-03-21T05:03:32.559Z,152275.28
2019-03-21T05:06:01.041Z,152268.69
2019-03-21T05:08:29.540Z,152263.47
2019-03-21T05:10:58.005Z,152273.97
2019-03-21T05:13:26.499Z,152281.86
2019-03-21T05:15:55.349Z,152271.36
2019-03-21T05:18:26.886Z,152264.78
2019-03-21T05:20:55.358Z,152275.28
2019-03-21T05:23:23.841Z,152268.69
2019-03-21T05:25:52.302Z,152262.17
2019-03-21T05:28:20.801Z,152262.17
2019-03-21T05:30:52.289Z,152271.36
2019-03-21T05:33:20.791Z,152276.58
2019-03-21T05:35:49.258Z,152271.36
2019-03-21T05:38:19.598Z,152271.36
2019-03-21T05:40:48.076Z,152268.69
2019-03-21T05:43:22.551Z,152273.97
2019-03-21T05:45:51.169Z,152271.36
2019-03-21T05:48:19.668Z,152275.28
2019-03-21T05:50:48.138Z,152268.69
2019-03-21T05:53:16.632Z,152285.78
2019-03-21T05:55:45.106Z,152284.47
2019-03-21T05:58:13.596Z,152276.58
2019-03-21T06:00:45.440Z,152285.78
2019-03-21T06:03:16.942Z,152279.19
2019-03-21T06:05:51.134Z,152281.86
2019-03-21T06:08:23.378Z,152281.86
2019-03-21T06:10:51.858Z,152293.66
2019-03-21T06:13:20.355Z,152285.78
2019-03-21T06:15:48.836Z,152294.97
2019-03-21T06:18:32.149Z,152297.58
2019-03-21T06:21:15.828Z,152313.36
2019-03-21T06:23:55.912Z,152292.36
2019-03-21T06:26:39.302Z,152308.08
2019-03-21T06:29:07.790Z,152331.70
2019-03-21T06:31:36.276Z,152321.19
2019-03-21T06:34:04.843Z,152333.06
2019-03-21T06:36:33.306Z,152323.86
2019-03-21T06:39:01.803Z,152336.97
2019-03-21T06:41:30.266Z,152323.86
2019-03-21T06:43:58.777Z,152323.86
2019-03-21T06:46:27.254Z,152318.59
2019-03-21T06:48:55.734Z,152333.06
2019-03-21T06:51:24.222Z,152318.59
2019-03-21T06:53:52.693Z,152354.06
2019-03-21T06:56:21.185Z,152334.36
2019-03-21T06:58:49.657Z,152352.70
2019-03-21T07:01:18.148Z,152343.56
2019-03-21T07:03:46.621Z,152350.09
2019-03-21T07:06:15.111Z,152344.86
2019-03-21T07:08:43.589Z,152354.06
2019-03-21T07:11:12.082Z,152357.97
2019-03-21T07:13:40.561Z,152364.56
2019-03-21T07:16:09.469Z,152369.78
2019-03-21T07:18:38.106Z,152365.87
2019-03-21T07:21:06.605Z,152384.22
2019-03-21T07:23:35.085Z,152373.72
2019-03-21T07:26:03.583Z,152373.72
2019-03-21T07:28:32.049Z,152392.09
2019-03-21T07:31:00.546Z,152389.48
2019-03-21T07:33:29.026Z,152401.30
2019-03-21T07:35:57.509Z,152386.87
2019-03-21T07:38:25.989Z,152396.06
2019-03-21T07:40:54.469Z,152394.72
2019-03-21T07:43:22.951Z,152394.72
2019-03-21T07:45:51.436Z,152384.22
2019-03-21T07:48:19.910Z,152401.30
2019-03-21T07:50:48.404Z,152426.28
2019-03-21T07:53:16.883Z,152423.61
2019-03-21T07:55:45.366Z,152428.89
2019-03-21T07:58:13.842Z,152434.13
2019-03-21T08:00:42.312Z,152422.31
2019-03-21T08:03:10.810Z,152428.89
2019-03-21T08:05:40.519Z,152442.00
2019-03-21T08:08:09.365Z,152440.70
2019-03-21T08:10:37.834Z,152443.31
2019-03-21T08:13:06.341Z,152442.00
2019-03-21T08:15:34.851Z,152444.63
2019-03-21T08:18:03.340Z,152444.63
2019-03-21T08:20:31.815Z,152442.00
2019-03-21T08:23:00.317Z,152457.80
2019-03-21T08:25:28.813Z,152461.72
2019-03-21T08:27:57.302Z,152484.03
2019-03-21T08:30:34.079Z,152491.92
2019-03-21T08:33:03.320Z,152468.30
2019-03-21T08:35:32.367Z,152484.03
2019-03-21T08:38:00.915Z,152490.63
2019-03-21T08:40:29.395Z,152484.03
2019-03-21T08:42:57.883Z,152499.81
2019-03-21T08:45:26.358Z,152515.56
2019-03-21T08:47:54.912Z,152520.84
2019-03-21T08:50:23.400Z,152526.06
2019-03-21T08:52:51.894Z,152531.34
2019-03-21T08:55:20.377Z,152518.17
2019-03-21T08:57:48.874Z,152527.38
2019-03-21T09:00:17.494Z,152553.67
2019-03-21T09:02:45.975Z,152565.48
2019-03-21T09:05:14.527Z,152541.86
2019-03-21T09:07:43.025Z,152569.41
2019-03-21T09:10:12.521Z,152581.28
2019-03-21T09:12:42.655Z,152603.66
2019-03-21T09:15:11.516Z,152597.06
2019-03-21T09:17:39.990Z,152595.75
2019-03-21T09:20:09.612Z,152604.97
2019-03-21T09:22:38.163Z,152612.86
2019-03-21T09:25:08.769Z,152615.47
2019-03-21T09:27:37.246Z,152633.87
2019-03-21T09:30:08.794Z,152625.98
2019-03-21T09:32:37.259Z,152636.50
2019-03-21T09:35:07.500Z,152623.37
2019-03-21T09:37:36.003Z,152594.45
2019-03-21T09:40:07.339Z,152643.03
2019-03-21T09:42:35.815Z,152670.66
2019-03-21T09:45:07.194Z,152629.91
2019-03-21T09:47:35.678Z,152668.03
2019-03-21T09:50:08.877Z,152654.91
2019-03-21T09:52:37.351Z,152670.66
2019-03-21T09:55:09.078Z,152661.44
2019-03-21T09:57:37.586Z,152637.80
2019-03-21T10:00:08.027Z,152675.94
2019-03-21T10:02:36.500Z,152674.63
2019-03-21T10:05:06.995Z,152694.30
2019-03-21T10:07:35.456Z,152683.78
2019-03-21T10:10:07.440Z,152664.11
2019-03-21T10:12:35.963Z,152686.44
2019-03-21T10:15:06.145Z,152658.83
2019-03-21T10:17:34.627Z,152687.75
2019-03-21T10:20:04.306Z,152696.95
2019-03-21T10:22:32.785Z,152678.55
2019-03-21T10:25:01.273Z,152685.14
2019-03-21T10:27:29.755Z,152707.47
2019-03-21T10:29:58.263Z,152728.50
2019-03-21T10:32:26.722Z,152714.02
2019-03-21T10:34:55.228Z,152723.22
2019-03-21T10:37:23.731Z,152733.73
2019-03-21T10:39:52.194Z,152729.81
2019-03-21T10:42:20.703Z,152711.39
2019-03-21T10:44:49.187Z,152710.09
2019-03-21T10:47:17.692Z,152757.44
2019-03-21T10:49:46.241Z,152769.25
2019-03-21T10:52:14.735Z,152770.56
2019-03-21T10:54:43.222Z,152798.14
2019-03-21T10:57:11.699Z,152802.12
2019-03-21T10:59:40.201Z,152785.00
2019-03-21T11:02:08.692Z,152790.28
2019-03-21T11:04:37.175Z,152781.08
2019-03-21T11:07:04.529Z,152790.28
2019-03-21T11:09:33.005Z,152813.94
2019-03-21T11:12:01.494Z,152811.33
2019-03-21T11:14:29.966Z,152800.81
2019-03-21T11:16:58.460Z,152820.53
2019-03-21T11:19:27.039Z,152810.02
2019-03-21T11:22:05.716Z,152820.53
2019-03-21T11:24:25.743Z,152820.53
2019-03-21T11:26:54.214Z,152827.08
2019-03-21T11:29:22.713Z,152836.28
2019-03-21T11:31:51.251Z,152856.02
2019-03-21T11:34:19.672Z,152831.05
2019-03-21T11:36:48.161Z,152825.77
2019-03-21T11:39:16.636Z,152802.12
2019-03-21T11:41:45.131Z,152832.36
2019-03-21T11:44:13.638Z,152817.88
2019-03-21T11:46:42.149Z,152846.81
2019-03-21T11:49:10.599Z,152866.53
2019-03-21T11:51:39.095Z,152879.67
2019-03-21T11:54:07.562Z,152859.94
2019-03-21T11:56:36.076Z,152857.33
2019-03-21T11:59:04.524Z,152866.53
2019-03-21T12:01:33.015Z,152891.50
2019-03-21T12:04:01.522Z,152880.98
2019-03-21T12:06:30.023Z,152844.19
2019-03-21T12:08:58.509Z,152871.83
2019-03-21T12:11:27.000Z,152896.78
2019-03-21T12:13:55.480Z,152899.41
2019-03-21T12:16:23.969Z,152882.34
2019-03-21T12:18:52.446Z,152880.98
2019-03-21T12:21:20.933Z,152906.00
2019-03-21T12:23:49.412Z,152902.03
2019-03-21T12:26:17.896Z,152916.53
2019-03-21T12:28:46.374Z,152920.45
2019-03-21T12:31:14.861Z,152927.05
2019-03-21T12:33:43.351Z,152909.92
2019-03-21T12:36:11.813Z,152925.73
2019-03-21T12:38:40.300Z,152909.92
2019-03-21T12:41:08.776Z,152938.87
2019-03-21T12:43:37.279Z,152934.94
2019-03-21T12:46:05.913Z,152940.19
2019-03-21T12:48:34.402Z,152936.25
2019-03-21T12:51:02.883Z,152954.73
2019-03-21T12:53:31.379Z,152973.11
2019-03-21T12:55:59.848Z,152979.70
2019-03-21T12:58:28.346Z,152988.92
2019-03-21T13:00:56.805Z,152959.97
2019-03-21T13:03:26.318Z,152916.53
2019-03-21T13:05:54.862Z,152957.34
2019-03-21T13:08:33.286Z,152971.80
2019-03-21T13:10:53.552Z,152973.11
2019-03-21T13:13:22.047Z,152957.34
2019-03-21T13:15:50.530Z,152961.28
2019-03-21T13:18:19.032Z,152983.63
2019-03-21T13:20:47.501Z,152934.94
2019-03-21T13:23:15.999Z,152919.14
2019-03-21T13:25:44.464Z,152952.02
2019-03-21T13:28:12.965Z,152928.36
2019-03-21T13:30:41.443Z,152956.03
2019-03-21T13:33:09.945Z,152965.25
2019-03-21T13:35:38.415Z,152950.70
2019-03-21T13:38:06.989Z,152937.56
2019-03-21T13:40:35.456Z,152949.39
2019-03-21T13:43:03.957Z,152967.88
2019-03-21T13:45:32.435Z,152957.34
2019-03-21T13:48:00.932Z,152971.80
2019-03-21T13:50:29.489Z,152962.59
2019-03-21T13:53:04.663Z,152969.19
2019-03-21T13:55:28.156Z,152967.88
2019-03-21T13:57:56.764Z,152977.09
2019-03-21T14:00:25.231Z,152940.19
2019-03-21T14:02:53.702Z,152965.25
2019-03-21T14:05:22.190Z,152940.19
2019-03-21T14:07:50.656Z,152954.73
2019-03-21T14:10:19.141Z,152967.88
2019-03-21T14:12:47.712Z,152981.02
2019-03-21T14:15:17.544Z,152977.09
2019-03-21T14:17:46.020Z,152992.84
2019-03-21T14:20:16.052Z,153004.69
2019-03-21T14:22:44.516Z,152996.83
2019-03-21T14:25:13.653Z,153004.69
2019-03-21T14:27:42.136Z,153017.88
2019-03-21T14:30:13.179Z,153017.88
2019-03-21T14:32:41.655Z,153033.64
2019-03-21T14:35:10.520Z,153046.78
2019-03-21T14:37:38.999Z,153044.16
2019-03-21T14:40:12.832Z,153024.42
2019-03-21T14:42:41.817Z,153038.92
2019-03-21T14:45:13.301Z,153017.88
2019-03-21T14:47:41.787Z,153009.97
2019-03-21T14:50:13.319Z,153008.66
2019-03-21T14:52:41.792Z,152958.66
2019-03-21T14:55:12.178Z,152992.84
2019-03-21T14:57:40.664Z,153028.41
2019-03-21T15:00:19.872Z,153004.69
2019-03-21T15:02:48.342Z,153012.59
2019-03-21T15:05:16.968Z,153025.73
2019-03-21T15:07:45.519Z,153015.20
2019-03-21T15:10:18.705Z,153013.91
2019-03-21T15:12:47.167Z,152998.14
2019-03-21T15:15:16.598Z,153016.56
2019-03-21T15:17:45.076Z,152996.83
2019-03-21T15:20:16.151Z,152995.47
2019-03-21T15:22:44.801Z,153023.11
2019-03-21T15:25:14.133Z,152999.44
2019-03-21T15:27:42.677Z,153006.05
2019-03-21T15:30:17.070Z,153025.73
2019-03-21T15:32:45.899Z,153007.34
2019-03-21T15:35:16.532Z,153009.97
2019-03-21T15:37:45.008Z,152992.84
2019-03-21T15:40:15.954Z,152996.83
2019-03-21T15:42:44.568Z,152994.16
2019-03-21T15:45:22.950Z,152991.53
2019-03-21T15:47:48.638Z,152988.92
2019-03-21T15:50:38.031Z,152970.50
2019-03-21T15:53:07.028Z,152994.16
2019-03-21T15:55:35.661Z,153002.06
2019-03-21T15:58:04.479Z,153002.06
2019-03-21T16:00:35.274Z,152957.34
2019-03-21T16:03:05.194Z,152969.19
2019-03-21T16:05:33.851Z,152957.34
2019-03-21T16:08:02.328Z,152940.19
2019-03-21T16:10:30.831Z,152920.45
2019-03-21T16:12:59.310Z,152929.66
2019-03-21T16:15:27.802Z,152936.25
2019-03-21T16:17:56.343Z,152915.22
2019-03-21T16:20:25.179Z,152892.86
2019-03-21T16:22:53.661Z,152874.44
2019-03-21T16:25:22.198Z,152865.23
2019-03-21T16:27:50.661Z,152873.13
2019-03-21T16:30:19.142Z,152873.13
2019-03-21T16:32:47.625Z,152862.61
2019-03-21T16:35:16.111Z,152859.94
2019-03-21T16:37:44.650Z,152842.88
2019-03-21T16:40:16.515Z,152829.75
2019-03-21T16:42:45.004Z,152819.17
2019-03-21T16:45:14.904Z,152815.25
2019-03-21T16:47:43.403Z,152815.25
2019-03-21T16:50:13.509Z,152811.33
2019-03-21T16:52:42.083Z,152785.00
2019-03-21T16:55:12.112Z,152781.08
2019-03-21T16:57:40.605Z,152790.28
2019-03-21T17:00:19.972Z,152771.88
2019-03-21T17:02:48.626Z,152773.19
2019-03-21T17:05:17.101Z,152769.25
2019-03-21T17:07:45.594Z,152767.95
2019-03-21T17:10:15.665Z,152750.84
2019-03-21T17:12:44.207Z,152749.53
2019-03-21T17:15:13.431Z,152729.81
2019-03-21T17:17:41.906Z,152707.47
2019-03-21T17:20:16.216Z,152704.81
2019-03-21T17:22:44.728Z,152702.19
2019-03-21T17:25:13.902Z,152685.14
2019-03-21T17:27:42.403Z,152678.55
2019-03-21T17:30:13.519Z,152675.94
2019-03-21T17:32:42.081Z,152649.62
2019-03-21T17:35:10.621Z,152649.62
2019-03-21T17:37:39.123Z,152641.72
2019-03-21T17:40:09.675Z,152637.80
2019-03-21T17:42:38.268Z,152624.67
2019-03-21T17:45:12.779Z,152610.19
2019-03-21T17:47:41.270Z,152599.69
2019-03-21T17:50:11.511Z,152578.61
2019-03-21T17:52:39.999Z,152573.38
2019-03-21T17:55:08.475Z,152553.67
2019-03-21T17:57:36.957Z,152562.87
2019-03-21T18:00:18.305Z,152564.19
2019-03-21T18:02:47.067Z,152560.20
2019-03-21T18:05:15.542Z,152551.06
2019-03-21T18:07:44.044Z,152539.19
2019-03-21T18:10:26.888Z,152520.84
2019-03-21T18:12:55.634Z,152506.36
2019-03-21T18:15:24.272Z,152507.66
2019-03-21T18:17:52.947Z,152489.31
2019-03-21T18:20:21.485Z,152480.13
2019-03-21T18:22:49.988Z,152481.42
2019-03-21T18:25:18.454Z,152465.64
2019-03-21T18:27:46.958Z,152460.41
2019-03-21T18:30:15.963Z,152452.52
2019-03-21T18:32:44.449Z,152448.59
2019-03-21T18:35:13.367Z,152442.00
2019-03-21T18:37:41.956Z,152434.13
2019-03-21T18:40:11.968Z,152434.13
2019-03-21T18:42:40.453Z,152428.89
2019-03-21T18:45:12.161Z,152415.78
2019-03-21T18:47:40.666Z,152421.00
2019-03-21T18:50:12.001Z,152394.72
2019-03-21T18:52:40.489Z,152377.69
2019-03-21T18:55:09.598Z,152393.41
2019-03-21T18:57:38.100Z,152389.48
2019-03-21T19:00:14.983Z,152390.80
2019-03-21T19:02:43.489Z,152386.87
2019-03-21T19:05:11.949Z,152381.59
2019-03-21T19:07:40.456Z,152377.69
2019-03-21T19:10:13.754Z,152365.87
2019-03-21T19:12:42.299Z,152360.59
2019-03-21T19:15:15.763Z,152352.70
2019-03-21T19:17:44.384Z,152355.38
2019-03-21T19:20:16.006Z,152322.50
2019-03-21T19:22:44.481Z,152327.78
2019-03-21T19:25:19.125Z,152331.70
2019-03-21T19:27:44.115Z,152318.59
2019-03-21T19:30:20.561Z,152313.36
2019-03-21T19:32:49.108Z,152247.69
2019-03-21T19:35:17.586Z,152255.59
2019-03-21T19:37:46.139Z,152267.39
2019-03-21T19:40:17.076Z,152258.19
2019-03-21T19:42:45.557Z,152231.97
2019-03-21T19:45:15.981Z,152245.08
2019-03-21T19:47:44.454Z,152246.39
2019-03-21T19:50:15.901Z,152224.09
2019-03-21T19:52:44.368Z,152216.20
2019-03-21T19:55:13.033Z,152191.28
2019-03-21T19:57:41.517Z,152201.78
2019-03-21T20:00:18.606Z,152178.12
2019-03-21T20:02:47.080Z,152166.28
2019-03-21T20:05:15.818Z,152176.78
2019-03-21T20:07:44.618Z,152166.28
2019-03-21T20:10:15.654Z,152171.56
2019-03-21T20:12:44.190Z,152166.28
2019-03-21T20:15:17.111Z,152163.67
2019-03-21T20:17:45.577Z,152155.78
2019-03-21T20:20:15.813Z,152143.98
2019-03-21T20:22:44.457Z,152138.75
2019-03-21T20:25:13.324Z,152132.19
2019-03-21T20:27:41.964Z,152134.80
2019-03-21T20:30:13.744Z,152125.61
2019-03-21T20:32:42.220Z,152117.77
2019-03-21T20:35:11.148Z,152103.31
2019-03-21T20:37:39.625Z,152098.09
2019-03-21T20:40:10.869Z,152073.13
2019-03-21T20:42:39.327Z,152084.98
2019-03-21T20:45:10.734Z,152087.59
2019-03-21T20:47:39.211Z,152098.09
2019-03-21T20:50:09.139Z,152086.28
2019-03-21T20:52:37.618Z,152090.20
2019-03-21T20:55:09.701Z,152095.47
2019-03-21T20:57:38.163Z,152084.98
2019-03-21T21:00:09.889Z,152087.59
2019-03-21T21:02:38.347Z,152086.28
2019-03-21T21:05:07.190Z,152079.72
2019-03-21T21:07:35.661Z,152063.94
2019-03-21T21:10:06.311Z,152061.34
2019-03-21T21:12:34.776Z,152066.61
2019-03-21T21:15:03.950Z,152066.61
2019-03-21T21:17:32.430Z,152058.72
2019-03-21T21:20:00.881Z,152040.34
2019-03-21T21:22:29.378Z,152040.34
2019-03-21T21:24:58.053Z,152045.63
2019-03-21T21:27:26.535Z,152049.53
2019-03-21T21:29:55.049Z,152035.12
2019-03-21T21:32:23.537Z,152008.88
2019-03-21T21:34:54.468Z,152021.98
2019-03-21T21:37:22.234Z,152014.16
2019-03-21T21:39:50.827Z,152024.64
2019-03-21T21:42:19.281Z,151994.47
2019-03-21T21:44:48.327Z,152014.16
2019-03-21T21:47:16.844Z,152015.45
2019-03-21T21:49:45.329Z,152010.19
2019-03-21T21:52:13.845Z,152003.66
2019-03-21T21:54:42.321Z,152008.88
2019-03-21T21:57:10.826Z,151974.80
2019-03-21T21:59:39.312Z,151980.02
2019-03-21T22:02:07.796Z,151981.33
2019-03-21T22:04:36.276Z,151966.92
2019-03-21T22:07:04.770Z,151969.53
2019-03-21T22:09:33.264Z,151966.92
2019-03-21T22:12:01.780Z,151961.70
2019-03-21T22:14:30.260Z,151953.81
2019-03-21T22:16:58.761Z,151957.73
2019-03-21T22:19:27.240Z,151931.53
2019-03-21T22:21:55.743Z,151943.34
2019-03-21T22:24:24.228Z,151939.38
2019-03-21T22:26:52.820Z,151939.38
2019-03-21T22:29:21.291Z,151938.06
2019-03-21T22:31:51.829Z,151923.66
2019-03-21T22:34:20.308Z,151917.09
2019-03-21T22:36:49.814Z,151913.17
2019-03-21T22:39:18.398Z,151914.48
2019-03-21T22:41:46.914Z,151901.37
2019-03-21T22:44:15.465Z,151888.23
2019-03-21T22:46:43.957Z,151902.69
2019-03-21T22:49:12.437Z,151904.00
2019-03-21T22:51:40.943Z,151871.22
2019-03-21T22:54:09.425Z,151864.66
2019-03-21T22:56:41.539Z,151851.56
2019-03-21T22:59:08.150Z,151851.56
2019-03-21T23:01:36.629Z,151848.95
2019-03-21T23:04:05.209Z,151855.47
2019-03-21T23:06:33.733Z,151859.44
2019-03-21T23:09:02.180Z,151851.56
2019-03-21T23:11:30.654Z,151816.14
2019-03-21T23:13:59.218Z,151838.47
2019-03-21T23:16:27.709Z,151827.98
2019-03-21T23:18:56.199Z,151835.81
2019-03-21T23:21:24.795Z,151797.84
2019-03-21T23:23:53.295Z,151799.14
2019-03-21T23:26:21.785Z,151761.12
2019-03-21T23:28:50.278Z,151776.87
2019-03-21T23:31:18.759Z,151754.59
2019-03-21T23:33:47.254Z,151741.47
2019-03-21T23:36:15.736Z,151757.20
2019-03-21T23:38:44.236Z,151751.94
2019-03-21T23:41:12.716Z,151724.47
2019-03-21T23:43:41.227Z,151738.86
2019-03-21T23:46:09.740Z,151704.81
2019-03-21T23:48:38.210Z,151691.63
2019-03-21T23:51:06.678Z,151689.02
2019-03-21T23:53:35.201Z,151710.03
2019-03-21T23:56:03.666Z,151724.47
2019-03-21T23:58:32.195Z,151721.81
